sensor_id;sensor_type;location;lat;lon;timestamp;P1;durP1;ratioP1;P2;durP2;ratioP2
79578;SDS011;69051;52.406;5.280;2023-05-14T00:00:43;25.40;;;14.02;;
79578;SDS011;69051;52.406;5.280;2023-05-14T00:03:09;24.83;;;13.63;;
79578;SDS011;69051;52.406;5.280;2023-05-14T00:05:37;28.00;;;13.20;;
79578;SDS011;69051;52.406;5.280;2023-05-14T00:08:03;23.65;;;12.35;;
79578;SDS011;69051;52.406;5.280;2023-05-14T00:10:30;27.90;;;12.60;;
79578;SDS011;69051;52.406;5.280;2023-05-14T00:12:56;25.20;;;13.30;;
79578;SDS011;69051;52.406;5.280;2023-05-14T00:15:23;23.77;;;13.15;;
79578;SDS011;69051;52.406;5.280;2023-05-14T00:17:49;28.00;;;13.23;;
79578;SDS011;69051;52.406;5.280;2023-05-14T00:20:16;27.38;;;13.40;;
79578;SDS011;69051;52.406;5.280;2023-05-14T00:22:42;25.83;;;13.00;;
79578;SDS011;69051;52.406;5.280;2023-05-14T00:25:09;25.75;;;13.93;;
79578;SDS011;69051;52.406;5.280;2023-05-14T00:27:36;29.10;;;13.38;;
79578;SDS011;69051;52.406;5.280;2023-05-14T00:30:05;24.77;;;13.13;;
79578;SDS011;69051;52.406;5.280;2023-05-14T00:32:32;26.85;;;13.45;;
79578;SDS011;69051;52.406;5.280;2023-05-14T00:34:58;28.30;;;13.93;;
79578;SDS011;69051;52.406;5.280;2023-05-14T00:37:25;23.88;;;13.23;;
79578;SDS011;69051;52.406;5.280;2023-05-14T00:39:51;28.98;;;14.27;;
79578;SDS011;69051;52.406;5.280;2023-05-14T00:42:18;24.10;;;13.18;;
79578;SDS011;69051;52.406;5.280;2023-05-14T00:44:44;31.20;;;13.60;;
79578;SDS011;69051;52.406;5.280;2023-05-14T00:47:10;26.25;;;14.35;;
79578;SDS011;69051;52.406;5.280;2023-05-14T00:49:37;27.00;;;14.50;;
79578;SDS011;69051;52.406;5.280;2023-05-14T00:52:06;26.65;;;13.45;;
79578;SDS011;69051;52.406;5.280;2023-05-14T00:54:33;23.17;;;13.23;;
79578;SDS011;69051;52.406;5.280;2023-05-14T00:57:00;26.13;;;13.55;;
79578;SDS011;69051;52.406;5.280;2023-05-14T00:59:27;28.38;;;13.50;;
79578;SDS011;69051;52.406;5.280;2023-05-14T01:01:53;29.70;;;12.45;;
79578;SDS011;69051;52.406;5.280;2023-05-14T01:04:20;28.73;;;13.65;;
79578;SDS011;69051;52.406;5.280;2023-05-14T01:07:01;28.10;;;12.93;;
79578;SDS011;69051;52.406;5.280;2023-05-14T01:12:33;22.75;;;13.65;;
79578;SDS011;69051;52.406;5.280;2023-05-14T01:15:20;28.02;;;13.55;;
79578;SDS011;69051;52.406;5.280;2023-05-14T01:17:49;30.65;;;14.25;;
79578;SDS011;69051;52.406;5.280;2023-05-14T01:20:19;25.50;;;13.88;;
79578;SDS011;69051;52.406;5.280;2023-05-14T01:22:46;27.05;;;13.93;;
79578;SDS011;69051;52.406;5.280;2023-05-14T01:25:12;25.95;;;13.82;;
79578;SDS011;69051;52.406;5.280;2023-05-14T01:30:20;27.02;;;14.05;;
79578;SDS011;69051;52.406;5.280;2023-05-14T01:32:50;28.27;;;13.40;;
79578;SDS011;69051;52.406;5.280;2023-05-14T01:35:21;24.75;;;13.45;;
79578;SDS011;69051;52.406;5.280;2023-05-14T01:37:49;31.63;;;13.32;;
79578;SDS011;69051;52.406;5.280;2023-05-14T01:40:16;24.25;;;12.38;;
79578;SDS011;69051;52.406;5.280;2023-05-14T01:42:42;30.15;;;13.80;;
79578;SDS011;69051;52.406;5.280;2023-05-14T01:45:09;26.95;;;13.93;;
79578;SDS011;69051;52.406;5.280;2023-05-14T01:47:36;25.42;;;12.38;;
79578;SDS011;69051;52.406;5.280;2023-05-14T01:50:02;29.20;;;14.43;;
79578;SDS011;69051;52.406;5.280;2023-05-14T01:52:29;24.65;;;13.68;;
79578;SDS011;69051;52.406;5.280;2023-05-14T01:54:55;24.55;;;13.88;;
79578;SDS011;69051;52.406;5.280;2023-05-14T01:57:23;24.75;;;14.30;;
79578;SDS011;69051;52.406;5.280;2023-05-14T01:59:49;27.10;;;14.00;;
79578;SDS011;69051;52.406;5.280;2023-05-14T02:02:16;29.33;;;14.23;;
79578;SDS011;69051;52.406;5.280;2023-05-14T02:04:42;27.88;;;13.73;;
79578;SDS011;69051;52.406;5.280;2023-05-14T02:07:09;26.15;;;14.02;;
79578;SDS011;69051;52.406;5.280;2023-05-14T02:09:35;28.42;;;12.73;;
79578;SDS011;69051;52.406;5.280;2023-05-14T02:12:01;28.92;;;12.90;;
79578;SDS011;69051;52.406;5.280;2023-05-14T02:14:28;28.88;;;14.05;;
79578;SDS011;69051;52.406;5.280;2023-05-14T02:16:54;24.70;;;13.30;;
79578;SDS011;69051;52.406;5.280;2023-05-14T02:19:21;31.42;;;13.98;;
79578;SDS011;69051;52.406;5.280;2023-05-14T02:21:47;43.38;;;14.00;;
79578;SDS011;69051;52.406;5.280;2023-05-14T02:24:14;26.05;;;14.73;;
79578;SDS011;69051;52.406;5.280;2023-05-14T02:26:40;24.77;;;13.25;;
79578;SDS011;69051;52.406;5.280;2023-05-14T02:29:07;27.52;;;13.13;;
79578;SDS011;69051;52.406;5.280;2023-05-14T02:31:33;25.15;;;12.82;;
79578;SDS011;69051;52.406;5.280;2023-05-14T02:34:00;28.75;;;14.65;;
79578;SDS011;69051;52.406;5.280;2023-05-14T02:36:27;29.33;;;13.50;;
79578;SDS011;69051;52.406;5.280;2023-05-14T02:38:54;26.13;;;13.82;;
79578;SDS011;69051;52.406;5.280;2023-05-14T02:41:20;25.98;;;13.18;;
79578;SDS011;69051;52.406;5.280;2023-05-14T02:43:47;27.15;;;12.25;;
79578;SDS011;69051;52.406;5.280;2023-05-14T02:46:13;24.20;;;11.52;;
79578;SDS011;69051;52.406;5.280;2023-05-14T02:48:40;25.90;;;12.35;;
79578;SDS011;69051;52.406;5.280;2023-05-14T02:51:06;38.33;;;11.85;;
79578;SDS011;69051;52.406;5.280;2023-05-14T02:53:33;21.27;;;11.32;;
79578;SDS011;69051;52.406;5.280;2023-05-14T02:55:59;22.33;;;11.32;;
79578;SDS011;69051;52.406;5.280;2023-05-14T02:58:25;20.48;;;10.77;;
79578;SDS011;69051;52.406;5.280;2023-05-14T03:00:53;23.27;;;12.02;;
79578;SDS011;69051;52.406;5.280;2023-05-14T03:03:20;21.35;;;10.98;;
79578;SDS011;69051;52.406;5.280;2023-05-14T03:05:47;26.20;;;12.20;;
79578;SDS011;69051;52.406;5.280;2023-05-14T03:08:13;25.95;;;11.73;;
79578;SDS011;69051;52.406;5.280;2023-05-14T03:10:40;22.35;;;10.40;;
79578;SDS011;69051;52.406;5.280;2023-05-14T03:13:06;18.98;;;11.07;;
79578;SDS011;69051;52.406;5.280;2023-05-14T03:15:33;24.15;;;11.15;;
79578;SDS011;69051;52.406;5.280;2023-05-14T03:17:59;20.35;;;11.52;;
79578;SDS011;69051;52.406;5.280;2023-05-14T03:20:26;22.27;;;12.95;;
79578;SDS011;69051;52.406;5.280;2023-05-14T03:22:52;23.33;;;13.43;;
79578;SDS011;69051;52.406;5.280;2023-05-14T03:25:19;22.63;;;12.48;;
79578;SDS011;69051;52.406;5.280;2023-05-14T03:27:46;27.90;;;13.43;;
79578;SDS011;69051;52.406;5.280;2023-05-14T03:30:12;23.10;;;12.75;;
79578;SDS011;69051;52.406;5.280;2023-05-14T03:32:38;25.45;;;13.23;;
79578;SDS011;69051;52.406;5.280;2023-05-14T03:35:06;24.67;;;12.90;;
79578;SDS011;69051;52.406;5.280;2023-05-14T03:37:33;23.45;;;13.00;;
79578;SDS011;69051;52.406;5.280;2023-05-14T03:39:59;27.08;;;12.60;;
79578;SDS011;69051;52.406;5.280;2023-05-14T03:42:25;22.55;;;12.98;;
79578;SDS011;69051;52.406;5.280;2023-05-14T03:44:52;26.08;;;12.43;;
79578;SDS011;69051;52.406;5.280;2023-05-14T03:47:18;21.45;;;12.38;;
79578;SDS011;69051;52.406;5.280;2023-05-14T03:49:45;27.85;;;13.38;;
79578;SDS011;69051;52.406;5.280;2023-05-14T03:52:11;23.05;;;12.55;;
79578;SDS011;69051;52.406;5.280;2023-05-14T03:54:38;25.33;;;13.25;;
79578;SDS011;69051;52.406;5.280;2023-05-14T03:57:06;25.52;;;13.00;;
79578;SDS011;69051;52.406;5.280;2023-05-14T03:59:32;22.65;;;13.07;;
79578;SDS011;69051;52.406;5.280;2023-05-14T04:01:59;23.25;;;12.05;;
79578;SDS011;69051;52.406;5.280;2023-05-14T04:04:25;26.52;;;13.15;;
79578;SDS011;69051;52.406;5.280;2023-05-14T04:06:52;24.23;;;13.63;;
79578;SDS011;69051;52.406;5.280;2023-05-14T04:09:18;28.00;;;13.05;;
79578;SDS011;69051;52.406;5.280;2023-05-14T04:11:44;24.50;;;12.20;;
79578;SDS011;69051;52.406;5.280;2023-05-14T04:14:11;23.33;;;12.73;;
79578;SDS011;69051;52.406;5.280;2023-05-14T04:16:37;24.35;;;13.98;;
79578;SDS011;69051;52.406;5.280;2023-05-14T04:19:04;25.15;;;12.30;;
79578;SDS011;69051;52.406;5.280;2023-05-14T04:21:31;22.10;;;12.68;;
79578;SDS011;69051;52.406;5.280;2023-05-14T04:23:57;27.83;;;13.00;;
79578;SDS011;69051;52.406;5.280;2023-05-14T04:26:24;25.75;;;12.20;;
79578;SDS011;69051;52.406;5.280;2023-05-14T04:28:50;23.50;;;12.23;;
79578;SDS011;69051;52.406;5.280;2023-05-14T04:31:17;23.00;;;12.52;;
79578;SDS011;69051;52.406;5.280;2023-05-14T04:33:43;25.92;;;12.57;;
79578;SDS011;69051;52.406;5.280;2023-05-14T04:36:10;24.80;;;12.43;;
79578;SDS011;69051;52.406;5.280;2023-05-14T04:38:36;24.20;;;12.43;;
79578;SDS011;69051;52.406;5.280;2023-05-14T04:41:03;26.10;;;12.82;;
79578;SDS011;69051;52.406;5.280;2023-05-14T04:43:29;28.13;;;13.60;;
79578;SDS011;69051;52.406;5.280;2023-05-14T04:45:55;23.30;;;13.40;;
79578;SDS011;69051;52.406;5.280;2023-05-14T04:48:22;28.35;;;13.70;;
79578;SDS011;69051;52.406;5.280;2023-05-14T04:50:48;28.40;;;14.48;;
79578;SDS011;69051;52.406;5.280;2023-05-14T04:53:15;29.15;;;13.82;;
79578;SDS011;69051;52.406;5.280;2023-05-14T04:55:41;29.50;;;14.88;;
79578;SDS011;69051;52.406;5.280;2023-05-14T04:58:07;31.30;;;15.43;;
79578;SDS011;69051;52.406;5.280;2023-05-14T05:00:34;28.88;;;15.15;;
79578;SDS011;69051;52.406;5.280;2023-05-14T05:03:00;28.13;;;13.95;;
79578;SDS011;69051;52.406;5.280;2023-05-14T05:05:27;31.48;;;15.68;;
79578;SDS011;69051;52.406;5.280;2023-05-14T05:07:53;27.50;;;14.40;;
79578;SDS011;69051;52.406;5.280;2023-05-14T05:10:20;30.55;;;15.48;;
79578;SDS011;69051;52.406;5.280;2023-05-14T05:12:47;25.63;;;14.07;;
79578;SDS011;69051;52.406;5.280;2023-05-14T05:15:13;30.02;;;14.95;;
79578;SDS011;69051;52.406;5.280;2023-05-14T05:17:40;33.28;;;14.90;;
79578;SDS011;69051;52.406;5.280;2023-05-14T05:20:06;28.40;;;14.05;;
79578;SDS011;69051;52.406;5.280;2023-05-14T05:22:35;31.20;;;16.33;;
79578;SDS011;69051;52.406;5.280;2023-05-14T05:25:01;29.30;;;15.20;;
79578;SDS011;69051;52.406;5.280;2023-05-14T05:27:31;29.58;;;15.02;;
79578;SDS011;69051;52.406;5.280;2023-05-14T05:30:00;27.55;;;14.93;;
79578;SDS011;69051;52.406;5.280;2023-05-14T05:32:27;29.88;;;13.60;;
79578;SDS011;69051;52.406;5.280;2023-05-14T05:34:53;25.73;;;13.40;;
79578;SDS011;69051;52.406;5.280;2023-05-14T05:37:20;23.35;;;14.23;;
79578;SDS011;69051;52.406;5.280;2023-05-14T05:39:46;26.80;;;14.65;;
79578;SDS011;69051;52.406;5.280;2023-05-14T05:42:13;26.75;;;14.32;;
79578;SDS011;69051;52.406;5.280;2023-05-14T05:44:39;31.60;;;14.05;;
79578;SDS011;69051;52.406;5.280;2023-05-14T05:47:06;25.95;;;13.85;;
79578;SDS011;69051;52.406;5.280;2023-05-14T05:49:32;27.05;;;13.18;;
79578;SDS011;69051;52.406;5.280;2023-05-14T05:51:59;22.00;;;13.65;;
79578;SDS011;69051;52.406;5.280;2023-05-14T05:54:25;22.55;;;13.30;;
79578;SDS011;69051;52.406;5.280;2023-05-14T05:56:52;28.60;;;12.85;;
79578;SDS011;69051;52.406;5.280;2023-05-14T05:59:18;25.80;;;12.75;;
79578;SDS011;69051;52.406;5.280;2023-05-14T06:01:45;25.17;;;12.95;;
79578;SDS011;69051;52.406;5.280;2023-05-14T06:04:11;28.95;;;12.80;;
79578;SDS011;69051;52.406;5.280;2023-05-14T06:06:37;21.65;;;13.02;;
79578;SDS011;69051;52.406;5.280;2023-05-14T06:09:04;23.98;;;12.20;;
79578;SDS011;69051;52.406;5.280;2023-05-14T06:11:32;23.90;;;12.60;;
79578;SDS011;69051;52.406;5.280;2023-05-14T06:13:58;25.10;;;12.98;;
79578;SDS011;69051;52.406;5.280;2023-05-14T06:16:25;25.52;;;12.93;;
79578;SDS011;69051;52.406;5.280;2023-05-14T06:18:51;24.95;;;13.05;;
79578;SDS011;69051;52.406;5.280;2023-05-14T06:21:19;21.73;;;12.63;;
79578;SDS011;69051;52.406;5.280;2023-05-14T06:23:45;24.63;;;12.70;;
79578;SDS011;69051;52.406;5.280;2023-05-14T06:26:12;23.75;;;13.43;;
79578;SDS011;69051;52.406;5.280;2023-05-14T06:28:38;26.45;;;13.40;;
79578;SDS011;69051;52.406;5.280;2023-05-14T06:31:05;29.85;;;14.23;;
79578;SDS011;69051;52.406;5.280;2023-05-14T06:33:31;21.98;;;12.60;;
79578;SDS011;69051;52.406;5.280;2023-05-14T06:35:58;25.50;;;12.65;;
79578;SDS011;69051;52.406;5.280;2023-05-14T06:38:25;24.55;;;12.85;;
79578;SDS011;69051;52.406;5.280;2023-05-14T06:40:52;27.02;;;12.88;;
79578;SDS011;69051;52.406;5.280;2023-05-14T06:43:18;27.20;;;14.48;;
79578;SDS011;69051;52.406;5.280;2023-05-14T06:45:49;22.05;;;12.07;;
79578;SDS011;69051;52.406;5.280;2023-05-14T06:48:16;19.30;;;11.15;;
79578;SDS011;69051;52.406;5.280;2023-05-14T06:50:46;20.00;;;11.75;;
79578;SDS011;69051;52.406;5.280;2023-05-14T06:53:13;25.20;;;11.63;;
79578;SDS011;69051;52.406;5.280;2023-05-14T06:55:40;22.80;;;10.55;;
79578;SDS011;69051;52.406;5.280;2023-05-14T06:58:07;21.65;;;10.57;;
79578;SDS011;69051;52.406;5.280;2023-05-14T07:00:33;20.85;;;10.82;;
79578;SDS011;69051;52.406;5.280;2023-05-14T07:03:00;18.92;;;10.45;;
79578;SDS011;69051;52.406;5.280;2023-05-14T07:05:26;23.13;;;11.65;;
79578;SDS011;69051;52.406;5.280;2023-05-14T07:07:53;21.50;;;10.20;;
79578;SDS011;69051;52.406;5.280;2023-05-14T07:10:19;21.15;;;12.15;;
79578;SDS011;69051;52.406;5.280;2023-05-14T07:12:46;22.13;;;12.02;;
79578;SDS011;69051;52.406;5.280;2023-05-14T07:15:12;22.50;;;12.00;;
79578;SDS011;69051;52.406;5.280;2023-05-14T07:17:39;22.20;;;12.68;;
79578;SDS011;69051;52.406;5.280;2023-05-14T07:20:06;23.20;;;11.35;;
79578;SDS011;69051;52.406;5.280;2023-05-14T07:22:33;21.00;;;11.40;;
79578;SDS011;69051;52.406;5.280;2023-05-14T07:24:59;25.67;;;11.90;;
79578;SDS011;69051;52.406;5.280;2023-05-14T07:27:25;21.67;;;10.55;;
79578;SDS011;69051;52.406;5.280;2023-05-14T07:29:52;24.83;;;10.98;;
79578;SDS011;69051;52.406;5.280;2023-05-14T07:32:18;24.63;;;11.57;;
79578;SDS011;69051;52.406;5.280;2023-05-14T07:34:45;20.83;;;10.30;;
79578;SDS011;69051;52.406;5.280;2023-05-14T07:37:11;26.73;;;10.73;;
79578;SDS011;69051;52.406;5.280;2023-05-14T07:39:38;23.75;;;11.27;;
79578;SDS011;69051;52.406;5.280;2023-05-14T07:42:06;22.00;;;10.15;;
79578;SDS011;69051;52.406;5.280;2023-05-14T07:44:32;22.85;;;9.98;;
79578;SDS011;69051;52.406;5.280;2023-05-14T07:46:59;19.60;;;9.75;;
79578;SDS011;69051;52.406;5.280;2023-05-14T07:49:25;20.77;;;9.25;;
79578;SDS011;69051;52.406;5.280;2023-05-14T07:51:52;19.38;;;9.40;;
79578;SDS011;69051;52.406;5.280;2023-05-14T07:54:18;20.88;;;9.48;;
79578;SDS011;69051;52.406;5.280;2023-05-14T07:56:45;23.13;;;9.05;;
79578;SDS011;69051;52.406;5.280;2023-05-14T07:59:11;18.90;;;8.57;;
79578;SDS011;69051;52.406;5.280;2023-05-14T08:01:37;19.58;;;9.00;;
79578;SDS011;69051;52.406;5.280;2023-05-14T08:04:04;19.52;;;9.23;;
79578;SDS011;69051;52.406;5.280;2023-05-14T08:06:31;21.60;;;9.35;;
79578;SDS011;69051;52.406;5.280;2023-05-14T08:08:57;26.42;;;8.70;;
79578;SDS011;69051;52.406;5.280;2023-05-14T08:11:24;24.38;;;9.65;;
79578;SDS011;69051;52.406;5.280;2023-05-14T08:13:51;16.67;;;8.80;;
79578;SDS011;69051;52.406;5.280;2023-05-14T08:16:17;16.23;;;7.88;;
79578;SDS011;69051;52.406;5.280;2023-05-14T08:18:44;20.45;;;8.48;;
79578;SDS011;69051;52.406;5.280;2023-05-14T08:21:10;17.45;;;7.30;;
79578;SDS011;69051;52.406;5.280;2023-05-14T08:23:37;16.63;;;7.55;;
79578;SDS011;69051;52.406;5.280;2023-05-14T08:26:03;16.10;;;7.63;;
79578;SDS011;69051;52.406;5.280;2023-05-14T08:28:30;19.60;;;6.78;;
79578;SDS011;69051;52.406;5.280;2023-05-14T08:30:56;16.00;;;6.90;;
79578;SDS011;69051;52.406;5.280;2023-05-14T08:33:23;18.40;;;8.25;;
79578;SDS011;69051;52.406;5.280;2023-05-14T08:35:51;17.65;;;7.22;;
79578;SDS011;69051;52.406;5.280;2023-05-14T08:38:18;17.95;;;7.00;;
79578;SDS011;69051;52.406;5.280;2023-05-14T08:40:47;16.67;;;6.72;;
79578;SDS011;69051;52.406;5.280;2023-05-14T08:43:18;20.60;;;7.30;;
79578;SDS011;69051;52.406;5.280;2023-05-14T08:45:45;21.52;;;7.15;;
79578;SDS011;69051;52.406;5.280;2023-05-14T08:48:14;15.65;;;6.25;;
79578;SDS011;69051;52.406;5.280;2023-05-14T08:50:43;20.83;;;6.80;;
79578;SDS011;69051;52.406;5.280;2023-05-14T08:53:09;19.90;;;6.75;;
79578;SDS011;69051;52.406;5.280;2023-05-14T08:55:36;15.57;;;6.18;;
79578;SDS011;69051;52.406;5.280;2023-05-14T08:58:02;16.33;;;6.38;;
79578;SDS011;69051;52.406;5.280;2023-05-14T09:00:29;20.42;;;6.57;;
79578;SDS011;69051;52.406;5.280;2023-05-14T09:02:55;18.42;;;6.35;;
79578;SDS011;69051;52.406;5.280;2023-05-14T09:05:22;12.80;;;4.78;;
79578;SDS011;69051;52.406;5.280;2023-05-14T09:07:49;17.65;;;5.88;;
79578;SDS011;69051;52.406;5.280;2023-05-14T09:10:16;17.45;;;5.50;;
79578;SDS011;69051;52.406;5.280;2023-05-14T09:12:42;20.20;;;6.00;;
79578;SDS011;69051;52.406;5.280;2023-05-14T09:15:09;17.05;;;5.90;;
79578;SDS011;69051;52.406;5.280;2023-05-14T09:17:36;14.40;;;5.35;;
79578;SDS011;69051;52.406;5.280;2023-05-14T09:20:02;13.75;;;5.03;;
79578;SDS011;69051;52.406;5.280;2023-05-14T09:22:29;18.05;;;5.60;;
79578;SDS011;69051;52.406;5.280;2023-05-14T09:25:02;17.50;;;5.53;;
79578;SDS011;69051;52.406;5.280;2023-05-14T09:27:37;13.98;;;4.95;;
79578;SDS011;69051;52.406;5.280;2023-05-14T09:30:04;19.83;;;5.68;;
79578;SDS011;69051;52.406;5.280;2023-05-14T09:32:36;15.25;;;5.63;;
79578;SDS011;69051;52.406;5.280;2023-05-14T09:35:13;16.23;;;5.63;;
79578;SDS011;69051;52.406;5.280;2023-05-14T09:37:43;17.23;;;5.65;;
79578;SDS011;69051;52.406;5.280;2023-05-14T09:40:11;11.63;;;4.97;;
79578;SDS011;69051;52.406;5.280;2023-05-14T09:42:39;15.88;;;4.85;;
79578;SDS011;69051;52.406;5.280;2023-05-14T09:45:06;12.63;;;5.15;;
79578;SDS011;69051;52.406;5.280;2023-05-14T09:47:34;14.05;;;4.88;;
79578;SDS011;69051;52.406;5.280;2023-05-14T09:50:01;16.65;;;5.50;;
79578;SDS011;69051;52.406;5.280;2023-05-14T09:52:27;13.40;;;5.43;;
79578;SDS011;69051;52.406;5.280;2023-05-14T09:54:54;14.23;;;5.13;;
79578;SDS011;69051;52.406;5.280;2023-05-14T09:57:21;14.48;;;5.63;;
79578;SDS011;69051;52.406;5.280;2023-05-14T09:59:47;15.88;;;5.40;;
79578;SDS011;69051;52.406;5.280;2023-05-14T10:02:23;15.75;;;4.97;;
79578;SDS011;69051;52.406;5.280;2023-05-14T10:04:54;11.80;;;4.93;;
79578;SDS011;69051;52.406;5.280;2023-05-14T10:07:25;14.02;;;5.75;;
79578;SDS011;69051;52.406;5.280;2023-05-14T10:09:56;16.42;;;5.80;;
79578;SDS011;69051;52.406;5.280;2023-05-14T10:12:25;14.13;;;5.32;;
79578;SDS011;69051;52.406;5.280;2023-05-14T10:14:54;14.10;;;4.97;;
79578;SDS011;69051;52.406;5.280;2023-05-14T10:17:22;17.30;;;5.80;;
79578;SDS011;69051;52.406;5.280;2023-05-14T10:19:51;21.23;;;6.05;;
79578;SDS011;69051;52.406;5.280;2023-05-14T10:22:21;12.18;;;5.90;;
79578;SDS011;69051;52.406;5.280;2023-05-14T10:24:48;16.35;;;5.75;;
79578;SDS011;69051;52.406;5.280;2023-05-14T10:27:18;16.33;;;5.32;;
79578;SDS011;69051;52.406;5.280;2023-05-14T10:29:50;17.65;;;5.75;;
79578;SDS011;69051;52.406;5.280;2023-05-14T10:32:21;17.90;;;5.78;;
79578;SDS011;69051;52.406;5.280;2023-05-14T10:34:50;12.82;;;5.90;;
79578;SDS011;69051;52.406;5.280;2023-05-14T10:37:19;16.25;;;6.65;;
79578;SDS011;69051;52.406;5.280;2023-05-14T10:44:48;16.58;;;6.68;;
79578;SDS011;69051;52.406;5.280;2023-05-14T10:47:16;17.30;;;6.03;;
79578;SDS011;69051;52.406;5.280;2023-05-14T10:49:43;16.95;;;6.95;;
79578;SDS011;69051;52.406;5.280;2023-05-14T10:52:11;14.70;;;6.60;;
79578;SDS011;69051;52.406;5.280;2023-05-14T10:54:37;15.63;;;6.15;;
79578;SDS011;69051;52.406;5.280;2023-05-14T10:57:08;17.10;;;6.57;;
79578;SDS011;69051;52.406;5.280;2023-05-14T10:59:36;14.50;;;6.15;;
79578;SDS011;69051;52.406;5.280;2023-05-14T11:02:17;18.33;;;7.40;;
79578;SDS011;69051;52.406;5.280;2023-05-14T11:04:50;16.02;;;6.85;;
79578;SDS011;69051;52.406;5.280;2023-05-14T11:07:30;17.20;;;7.70;;
79578;SDS011;69051;52.406;5.280;2023-05-14T11:10:00;17.27;;;7.45;;
79578;SDS011;69051;52.406;5.280;2023-05-14T11:14:57;19.38;;;7.55;;
79578;SDS011;69051;52.406;5.280;2023-05-14T11:17:25;19.55;;;7.85;;
79578;SDS011;69051;52.406;5.280;2023-05-14T11:19:52;28.70;;;8.85;;
79578;SDS011;69051;52.406;5.280;2023-05-14T11:22:18;19.88;;;8.45;;
79578;SDS011;69051;52.406;5.280;2023-05-14T11:24:45;18.02;;;8.50;;
79578;SDS011;69051;52.406;5.280;2023-05-14T11:27:12;19.65;;;7.93;;
79578;SDS011;69051;52.406;5.280;2023-05-14T11:29:41;18.38;;;8.13;;
79578;SDS011;69051;52.406;5.280;2023-05-14T11:32:08;20.17;;;9.13;;
79578;SDS011;69051;52.406;5.280;2023-05-14T11:34:35;19.45;;;8.63;;
79578;SDS011;69051;52.406;5.280;2023-05-14T11:37:03;27.95;;;9.77;;
79578;SDS011;69051;52.406;5.280;2023-05-14T11:39:30;16.90;;;7.88;;
79578;SDS011;69051;52.406;5.280;2023-05-14T11:41:58;18.88;;;8.40;;
79578;SDS011;69051;52.406;5.280;2023-05-14T11:44:27;14.05;;;7.70;;
79578;SDS011;69051;52.406;5.280;2023-05-14T11:46:57;20.33;;;8.70;;
79578;SDS011;69051;52.406;5.280;2023-05-14T11:49:24;17.10;;;7.40;;
79578;SDS011;69051;52.406;5.280;2023-05-14T11:52:00;15.68;;;6.97;;
79578;SDS011;69051;52.406;5.280;2023-05-14T11:54:27;15.35;;;7.50;;
79578;SDS011;69051;52.406;5.280;2023-05-14T11:56:54;17.70;;;8.68;;
79578;SDS011;69051;52.406;5.280;2023-05-14T11:59:25;18.52;;;8.55;;
79578;SDS011;69051;52.406;5.280;2023-05-14T12:01:53;19.65;;;8.60;;
79578;SDS011;69051;52.406;5.280;2023-05-14T12:04:20;17.15;;;8.57;;
79578;SDS011;69051;52.406;5.280;2023-05-14T12:06:48;24.38;;;9.20;;
79578;SDS011;69051;52.406;5.280;2023-05-14T12:09:15;18.67;;;9.02;;
79578;SDS011;69051;52.406;5.280;2023-05-14T12:11:43;16.67;;;7.80;;
79578;SDS011;69051;52.406;5.280;2023-05-14T12:14:18;20.42;;;8.20;;
79578;SDS011;69051;52.406;5.280;2023-05-14T12:16:46;17.83;;;7.28;;
79578;SDS011;69051;52.406;5.280;2023-05-14T12:19:13;18.63;;;9.23;;
79578;SDS011;69051;52.406;5.280;2023-05-14T12:21:44;19.67;;;8.60;;
79578;SDS011;69051;52.406;5.280;2023-05-14T12:24:12;19.20;;;8.07;;
79578;SDS011;69051;52.406;5.280;2023-05-14T12:26:44;17.13;;;7.88;;
79578;SDS011;69051;52.406;5.280;2023-05-14T12:29:12;16.45;;;8.13;;
79578;SDS011;69051;52.406;5.280;2023-05-14T12:31:46;18.23;;;7.60;;
79578;SDS011;69051;52.406;5.280;2023-05-14T12:34:14;16.02;;;7.22;;
79578;SDS011;69051;52.406;5.280;2023-05-14T12:36:41;15.02;;;7.13;;
79578;SDS011;69051;52.406;5.280;2023-05-14T12:39:08;19.27;;;7.93;;
79578;SDS011;69051;52.406;5.280;2023-05-14T12:41:35;12.93;;;6.78;;
79578;SDS011;69051;52.406;5.280;2023-05-14T12:44:04;18.38;;;7.80;;
79578;SDS011;69051;52.406;5.280;2023-05-14T12:46:31;15.20;;;7.40;;
79578;SDS011;69051;52.406;5.280;2023-05-14T12:48:59;17.67;;;7.35;;
79578;SDS011;69051;52.406;5.280;2023-05-14T12:51:25;19.55;;;8.52;;
79578;SDS011;69051;52.406;5.280;2023-05-14T12:53:52;16.25;;;7.70;;
79578;SDS011;69051;52.406;5.280;2023-05-14T12:56:19;18.08;;;7.75;;
79578;SDS011;69051;52.406;5.280;2023-05-14T12:58:47;17.88;;;7.60;;
79578;SDS011;69051;52.406;5.280;2023-05-14T13:01:13;14.95;;;8.70;;
79578;SDS011;69051;52.406;5.280;2023-05-14T13:03:39;17.67;;;8.43;;
79578;SDS011;69051;52.406;5.280;2023-05-14T13:06:06;16.50;;;8.20;;
79578;SDS011;69051;52.406;5.280;2023-05-14T13:08:33;15.82;;;7.65;;
79578;SDS011;69051;52.406;5.280;2023-05-14T13:11:00;19.58;;;8.32;;
79578;SDS011;69051;52.406;5.280;2023-05-14T13:13:26;20.20;;;8.70;;
79578;SDS011;69051;52.406;5.280;2023-05-14T13:15:53;18.23;;;7.72;;
79578;SDS011;69051;52.406;5.280;2023-05-14T13:18:19;20.60;;;8.40;;
79578;SDS011;69051;52.406;5.280;2023-05-14T13:20:46;22.13;;;9.52;;
79578;SDS011;69051;52.406;5.280;2023-05-14T13:23:12;14.88;;;8.35;;
79578;SDS011;69051;52.406;5.280;2023-05-14T13:25:39;17.67;;;8.55;;
79578;SDS011;69051;52.406;5.280;2023-05-14T13:28:06;19.88;;;9.43;;
79578;SDS011;69051;52.406;5.280;2023-05-14T13:30:33;19.92;;;8.15;;
79578;SDS011;69051;52.406;5.280;2023-05-14T13:32:59;20.70;;;7.97;;
79578;SDS011;69051;52.406;5.280;2023-05-14T13:35:26;16.08;;;7.80;;
79578;SDS011;69051;52.406;5.280;2023-05-14T13:37:52;16.77;;;8.10;;
79578;SDS011;69051;52.406;5.280;2023-05-14T13:40:19;16.88;;;7.80;;
79578;SDS011;69051;52.406;5.280;2023-05-14T13:42:45;21.02;;;7.82;;
79578;SDS011;69051;52.406;5.280;2023-05-14T13:45:11;18.85;;;8.00;;
79578;SDS011;69051;52.406;5.280;2023-05-14T13:47:38;16.17;;;6.85;;
79578;SDS011;69051;52.406;5.280;2023-05-14T13:50:05;18.30;;;8.43;;
79578;SDS011;69051;52.406;5.280;2023-05-14T13:52:32;13.45;;;6.78;;
79578;SDS011;69051;52.406;5.280;2023-05-14T13:54:58;15.20;;;6.75;;
79578;SDS011;69051;52.406;5.280;2023-05-14T13:57:25;15.80;;;7.50;;
79578;SDS011;69051;52.406;5.280;2023-05-14T13:59:52;14.98;;;7.53;;
79578;SDS011;69051;52.406;5.280;2023-05-14T14:02:18;19.15;;;7.75;;
79578;SDS011;69051;52.406;5.280;2023-05-14T14:04:44;14.77;;;7.60;;
79578;SDS011;69051;52.406;5.280;2023-05-14T14:07:11;17.65;;;7.68;;
79578;SDS011;69051;52.406;5.280;2023-05-14T14:09:37;19.20;;;8.25;;
79578;SDS011;69051;52.406;5.280;2023-05-14T14:12:04;15.13;;;7.30;;
79578;SDS011;69051;52.406;5.280;2023-05-14T14:14:31;15.02;;;7.57;;
79578;SDS011;69051;52.406;5.280;2023-05-14T14:16:57;14.95;;;8.27;;
79578;SDS011;69051;52.406;5.280;2023-05-14T14:19:24;19.30;;;7.95;;
79578;SDS011;69051;52.406;5.280;2023-05-14T14:21:50;17.02;;;8.13;;
79578;SDS011;69051;52.406;5.280;2023-05-14T14:24:17;17.20;;;8.02;;
79578;SDS011;69051;52.406;5.280;2023-05-14T14:26:43;19.65;;;7.80;;
79578;SDS011;69051;52.406;5.280;2023-05-14T14:29:09;19.65;;;7.57;;
79578;SDS011;69051;52.406;5.280;2023-05-14T14:31:36;16.25;;;7.18;;
79578;SDS011;69051;52.406;5.280;2023-05-14T14:34:02;14.95;;;6.32;;
79578;SDS011;69051;52.406;5.280;2023-05-14T14:36:29;15.88;;;8.10;;
79578;SDS011;69051;52.406;5.280;2023-05-14T14:38:56;20.20;;;7.30;;
79578;SDS011;69051;52.406;5.280;2023-05-14T14:41:23;14.40;;;7.10;;